createdAt,value
2022-10-04T00:01:47.877Z,80.69
2022-10-04T00:04:40.992Z,80.21
2022-10-04T00:07:17.798Z,79.89
2022-10-04T00:09:58.367Z,80.58
2022-10-04T00:12:29.434Z,80.24
2022-10-04T00:14:59.482Z,80.58
2022-10-04T00:17:31.767Z,80.35
2022-10-04T00:19:58.921Z,80.40
2022-10-04T00:22:33.167Z,80.85
2022-10-04T00:25:13.727Z,80.43
2022-10-04T00:28:19.345Z,80.43
2022-10-04T00:31:12.471Z,80.31
2022-10-04T00:34:04.227Z,81.04
2022-10-04T00:36:36.677Z,80.74
2022-10-04T00:39:09.636Z,80.96
2022-10-04T00:41:49.016Z,80.63
2022-10-04T00:44:21.674Z,80.60
2022-10-04T00:46:49.017Z,81.00
2022-10-04T00:49:18.354Z,80.71
2022-10-04T00:51:54.618Z,80.72
2022-10-04T00:54:34.366Z,80.51
2022-10-04T00:57:22.714Z,80.65
2022-10-04T00:59:54.739Z,80.33
2022-10-04T01:02:32.710Z,80.83
2022-10-04T01:05:06.848Z,80.40
2022-10-04T01:07:39.249Z,80.27
2022-10-04T01:10:11.716Z,80.44
2022-10-04T01:12:46.258Z,80.83
2022-10-04T01:15:22.156Z,80.34
2022-10-04T01:18:09.638Z,80.06
2022-10-04T01:21:05.576Z,80.31
2022-10-04T01:23:38.564Z,80.19
2022-10-04T01:26:07.185Z,80.36
2022-10-04T01:28:35.110Z,79.90
2022-10-04T01:31:02.314Z,80.58
2022-10-04T01:33:30.078Z,80.36
2022-10-04T01:35:57.496Z,80.37
2022-10-04T01:38:24.449Z,80.52
2022-10-04T01:41:00.113Z,80.14
2022-10-04T01:43:32.330Z,80.11
2022-10-04T01:46:04.958Z,80.30
2022-10-04T01:48:37.169Z,80.49
2022-10-04T01:51:11.731Z,80.78
2022-10-04T01:53:50.751Z,80.24
2022-10-04T01:56:20.869Z,80.38
2022-10-04T01:58:52.437Z,80.60
2022-10-04T02:01:23.831Z,80.79
2022-10-04T02:04:40.585Z,80.76
2022-10-04T02:07:12.936Z,80.73
2022-10-04T02:09:43.829Z,80.93
2022-10-04T02:12:17.364Z,80.81
2022-10-04T02:14:52.722Z,80.70
2022-10-04T02:17:28.340Z,80.79
2022-10-04T02:19:55.714Z,80.69
2022-10-04T02:22:23.864Z,81.10
2022-10-04T02:24:50.962Z,81.26
2022-10-04T02:27:17.947Z,81.26
2022-10-04T02:29:45.439Z,81.10
2022-10-04T02:32:32.805Z,81.12
2022-10-04T02:34:59.899Z,81.02
2022-10-04T02:37:28.105Z,80.78
2022-10-04T02:40:04.286Z,81.67
2022-10-04T02:42:39.971Z,81.06
2022-10-04T02:45:37.858Z,81.29
2022-10-04T02:48:34.710Z,81.42
2022-10-04T02:51:12.387Z,81.35
2022-10-04T02:54:02.983Z,81.77
2022-10-04T02:56:31.648Z,81.25
2022-10-04T02:59:03.857Z,81.54
2022-10-04T03:01:44.141Z,82.00
2022-10-04T03:04:13.707Z,81.77
2022-10-04T03:06:42.285Z,81.91
2022-10-04T03:09:09.480Z,81.97
2022-10-04T03:11:39.111Z,81.79
2022-10-04T03:14:28.058Z,82.01
2022-10-04T03:16:56.588Z,81.93
2022-10-04T03:19:25.451Z,81.60
2022-10-04T03:21:54.412Z,82.42
2022-10-04T03:24:31.726Z,82.06
2022-10-04T03:27:00.985Z,82.22
2022-10-04T03:29:30.372Z,82.11
2022-10-04T03:31:58.318Z,82.43
2022-10-04T03:34:28.543Z,82.33
2022-10-04T03:36:58.818Z,82.52
2022-10-04T03:39:58.318Z,82.40
2022-10-04T03:42:30.469Z,82.20
2022-10-04T03:45:07.585Z,82.50
2022-10-04T03:47:36.920Z,82.50
2022-10-04T03:50:13.191Z,82.46
2022-10-04T03:52:50.875Z,82.72
2022-10-04T03:55:18.662Z,82.50
2022-10-04T03:57:45.828Z,82.87
2022-10-04T04:00:17.314Z,82.27
2022-10-04T04:02:54.676Z,82.63
2022-10-04T04:05:26.617Z,82.41
2022-10-04T04:08:12.437Z,82.74
2022-10-04T04:10:43.006Z,82.89
2022-10-04T04:13:24.663Z,82.99
2022-10-04T04:15:54.816Z,82.36
2022-10-04T04:18:24.318Z,82.64
2022-10-04T04:20:53.876Z,82.57
2022-10-04T04:23:35.026Z,82.43
2022-10-04T04:26:28.576Z,82.73
2022-10-04T04:29:14.308Z,82.82
2022-10-04T04:31:43.936Z,82.27
2022-10-04T04:34:22.357Z,83.24
2022-10-04T04:36:49.356Z,82.80
2022-10-04T04:39:43.132Z,82.97
2022-10-04T04:42:25.222Z,83.23
2022-10-04T04:44:53.127Z,82.84
2022-10-04T04:47:40.817Z,82.84
2022-10-04T04:50:15.976Z,82.86
2022-10-04T04:53:05.922Z,82.76
2022-10-04T04:56:02.683Z,83.16
2022-10-04T04:58:39.426Z,83.09
2022-10-04T05:01:13.837Z,82.75
2022-10-04T05:03:41.743Z,82.98
2022-10-04T05:06:28.117Z,82.57
2022-10-04T05:08:55.121Z,83.03
2022-10-04T05:11:23.347Z,83.13
2022-10-04T05:13:53.917Z,82.80
2022-10-04T05:16:25.258Z,83.26
2022-10-04T05:19:01.009Z,82.92
2022-10-04T05:21:30.300Z,82.85
2022-10-04T05:23:58.924Z,83.23
2022-10-04T05:26:30.945Z,82.95
2022-10-04T05:29:00.081Z,82.82
2022-10-04T05:31:42.440Z,82.58
2022-10-04T05:34:29.483Z,83.00
2022-10-04T05:37:45.452Z,82.72
2022-10-04T05:40:15.184Z,83.07
2022-10-04T05:42:49.489Z,82.82
2022-10-04T05:45:25.330Z,82.80
2022-10-04T05:48:00.952Z,82.81
2022-10-04T05:50:36.477Z,82.54
2022-10-04T05:53:29.418Z,82.79
2022-10-04T05:56:34.179Z,82.51
2022-10-04T05:59:36.633Z,82.67
2022-10-04T06:02:20.463Z,82.32
2022-10-04T06:05:00.146Z,82.22
2022-10-04T06:07:47.453Z,82.37
2022-10-04T06:10:36.618Z,82.33
2022-10-04T06:13:31.052Z,82.44
2022-10-04T06:16:04.623Z,82.33
2022-10-04T06:18:59.549Z,82.22
2022-10-04T06:21:32.218Z,82.21
2022-10-04T06:24:06.001Z,81.98
2022-10-04T06:26:57.043Z,81.88
2022-10-04T06:29:28.748Z,81.66
2022-10-04T06:32:33.212Z,82.02
2022-10-04T06:35:21.428Z,81.77
2022-10-04T06:38:13.264Z,81.60
2022-10-04T06:40:56.070Z,81.77
2022-10-04T06:43:38.076Z,81.53
2022-10-04T06:46:17.408Z,81.43
2022-10-04T06:49:00.426Z,81.33
2022-10-04T06:51:53.859Z,81.22
2022-10-04T06:54:28.100Z,81.15
2022-10-04T06:57:19.545Z,81.06
2022-10-04T07:00:00.198Z,81.10
2022-10-04T07:02:39.844Z,80.77
2022-10-04T07:05:21.797Z,80.69
2022-10-04T07:08:06.851Z,80.65
2022-10-04T07:10:55.611Z,80.50
2022-10-04T07:13:28.968Z,80.46
2022-10-04T07:16:02.442Z,80.34
2022-10-04T07:19:03.476Z,80.26
2022-10-04T07:21:49.795Z,80.07
2022-10-04T07:24:32.809Z,79.71
2022-10-04T07:29:36.689Z,79.62
2022-10-04T07:32:08.926Z,79.16
2022-10-04T07:34:47.299Z,79.10
2022-10-04T07:37:15.187Z,79.15
2022-10-04T07:39:50.831Z,78.85
2022-10-04T07:42:24.777Z,78.77
2022-10-04T07:45:30.345Z,78.66
2022-10-04T07:48:16.765Z,78.34
2022-10-04T07:51:10.058Z,78.23
2022-10-04T07:53:50.479Z,77.98
2022-10-04T07:56:27.278Z,78.05
2022-10-04T07:59:06.427Z,77.72
2022-10-04T08:01:49.028Z,77.49
2022-10-04T08:04:31.976Z,77.36
2022-10-04T08:07:01.623Z,77.10
2022-10-04T08:09:42.818Z,77.28
2022-10-04T08:12:28.990Z,76.92
2022-10-04T08:15:41.194Z,76.90
2022-10-04T08:18:08.297Z,76.35
2022-10-04T08:20:58.238Z,76.04
2022-10-04T08:24:22.627Z,75.81
2022-10-04T08:27:02.167Z,75.81
2022-10-04T08:29:45.118Z,75.44
2022-10-04T08:32:33.289Z,74.92
2022-10-04T08:35:19.618Z,74.88
2022-10-04T08:38:21.830Z,74.66
2022-10-04T08:40:54.510Z,74.75
2022-10-04T08:43:59.609Z,74.28
2022-10-04T08:46:59.253Z,74.20
2022-10-04T08:49:40.019Z,73.64
2022-10-04T08:52:44.296Z,73.33
2022-10-04T08:55:31.440Z,73.24
2022-10-04T08:58:23.894Z,73.13
2022-10-04T09:01:18.421Z,73.14
2022-10-04T09:04:04.035Z,72.73
2022-10-04T09:07:01.890Z,72.24
2022-10-04T09:09:56.976Z,72.03
2022-10-04T09:12:41.393Z,72.13
2022-10-04T09:15:14.845Z,71.59
2022-10-04T09:18:12.935Z,71.46
2022-10-04T09:21:01.313Z,71.30
2022-10-04T09:23:31.547Z,71.24
2022-10-04T09:26:21.069Z,70.91
2022-10-04T09:29:33.272Z,70.49
2022-10-04T09:32:11.657Z,70.32
2022-10-04T09:35:06.507Z,70.37
2022-10-04T09:38:03.021Z,69.94
2022-10-04T09:41:07.398Z,69.43
2022-10-04T09:44:13.866Z,69.33
2022-10-04T09:47:08.020Z,68.99
2022-10-04T09:50:14.197Z,68.75
2022-10-04T09:53:08.811Z,68.69
2022-10-04T09:56:12.950Z,68.41
2022-10-04T09:58:58.757Z,68.31
2022-10-04T10:01:45.341Z,68.04
2022-10-04T10:04:49.691Z,67.63
2022-10-04T10:07:35.018Z,67.47
2022-10-04T10:10:28.995Z,67.02
2022-10-04T10:13:38.431Z,67.00
2022-10-04T10:16:20.255Z,66.37
2022-10-04T10:19:14.941Z,66.40
2022-10-04T10:21:44.669Z,65.82
2022-10-04T10:24:17.470Z,65.80
2022-10-04T10:27:25.297Z,65.35
2022-10-04T10:30:19.058Z,65.45
2022-10-04T10:33:04.764Z,65.13
2022-10-04T10:35:53.732Z,64.98
2022-10-04T10:38:40.424Z,64.97
2022-10-04T10:41:41.561Z,64.49
2022-10-04T10:44:23.646Z,64.65
2022-10-04T10:47:09.047Z,64.34
2022-10-04T10:49:54.348Z,64.11
2022-10-04T10:52:44.038Z,63.77
2022-10-04T10:55:49.276Z,63.76
2022-10-04T10:58:53.457Z,63.52
2022-10-04T11:01:42.387Z,63.03
2022-10-04T11:04:40.519Z,62.83
2022-10-04T11:07:37.414Z,62.66
2022-10-04T11:10:26.839Z,62.66
2022-10-04T11:13:10.311Z,62.08
2022-10-04T11:16:07.952Z,61.98
2022-10-04T11:18:41.234Z,61.65
2022-10-04T11:21:35.199Z,61.68
2022-10-04T11:24:32.870Z,61.63
2022-10-04T11:27:25.156Z,61.26
2022-10-04T11:30:14.086Z,61.21
2022-10-04T11:33:18.269Z,61.18
2022-10-04T11:36:19.252Z,61.20
2022-10-04T11:39:07.032Z,61.13
2022-10-04T11:41:40.060Z,60.85
2022-10-04T11:44:31.145Z,60.53
2022-10-04T11:47:24.685Z,60.06
2022-10-04T11:50:14.585Z,60.04
2022-10-04T11:52:44.551Z,59.86
2022-10-04T11:55:36.558Z,59.42
2022-10-04T11:58:40.337Z,59.48
2022-10-04T12:01:30.505Z,59.35
2022-10-04T12:04:35.111Z,59.10
2022-10-04T12:07:31.104Z,58.94
2022-10-04T12:10:30.439Z,58.82
2022-10-04T12:13:34.797Z,58.50
2022-10-04T12:16:32.663Z,58.37
2022-10-04T12:19:30.313Z,58.57
2022-10-04T12:22:12.513Z,58.25
2022-10-04T12:24:59.547Z,58.37
2022-10-04T12:27:39.505Z,58.11
2022-10-04T12:30:34.473Z,57.89
2022-10-04T12:33:27.565Z,57.90
2022-10-04T12:36:13.695Z,57.67
2022-10-04T12:38:53.577Z,57.61
2022-10-04T12:41:46.064Z,57.52
2022-10-04T12:44:34.225Z,57.49
2022-10-04T12:47:26.251Z,57.66
2022-10-04T12:49:54.895Z,57.81
2022-10-04T12:52:25.524Z,57.54
2022-10-04T12:55:41.016Z,57.71
2022-10-04T12:58:33.197Z,57.81
2022-10-04T13:01:27.525Z,57.60
2022-10-04T13:03:55.157Z,57.76
2022-10-04T13:06:31.636Z,57.83
2022-10-04T13:09:17.947Z,57.79
2022-10-04T13:12:22.941Z,57.93
2022-10-04T13:15:11.190Z,58.01
2022-10-04T13:17:55.071Z,57.99
2022-10-04T13:20:26.242Z,57.88
2022-10-04T13:23:08.111Z,57.85
2022-10-04T13:26:06.072Z,57.61
2022-10-04T13:29:02.001Z,57.43
2022-10-04T13:32:01.435Z,57.51
2022-10-04T13:34:49.660Z,57.57
2022-10-04T13:37:45.321Z,57.49
2022-10-04T13:40:33.337Z,57.65
2022-10-04T13:43:28.412Z,57.33
2022-10-04T13:46:08.326Z,57.17
2022-10-04T13:48:55.649Z,56.90
2022-10-04T13:51:31.376Z,56.89
2022-10-04T13:54:31.911Z,56.99
2022-10-04T13:57:13.453Z,57.13
2022-10-04T14:00:02.377Z,56.95
2022-10-04T14:02:48.021Z,57.10
2022-10-04T14:05:32.502Z,57.43
2022-10-04T14:08:37.131Z,57.43
2022-10-04T14:11:26.854Z,57.83
2022-10-04T14:14:40.445Z,57.61
2022-10-04T14:17:46.397Z,57.76
2022-10-04T14:20:44.168Z,57.72
2022-10-04T14:23:35.847Z,57.82
2022-10-04T14:26:34.277Z,57.70
2022-10-04T14:29:19.661Z,58.04
2022-10-04T14:32:20.516Z,58.15
2022-10-04T14:34:57.286Z,58.18
2022-10-04T14:38:02.039Z,58.09
2022-10-04T14:40:47.482Z,58.34
2022-10-04T14:43:44.987Z,58.55
2022-10-04T14:46:30.280Z,58.63
2022-10-04T14:49:11.690Z,58.86
2022-10-04T14:51:42.527Z,58.92
2022-10-04T14:54:29.988Z,59.44
2022-10-04T14:57:21.056Z,59.10
2022-10-04T15:00:25.399Z,59.25
2022-10-04T15:03:02.979Z,59.35
2022-10-04T15:05:45.398Z,59.46
2022-10-04T15:08:43.081Z,59.22
2022-10-04T15:11:17.481Z,59.47
2022-10-04T15:14:05.403Z,59.56
2022-10-04T15:16:40.497Z,59.39
2022-10-04T15:19:23.777Z,59.52
2022-10-04T15:22:06.043Z,59.40
2022-10-04T15:24:39.668Z,59.57
2022-10-04T15:27:37.111Z,59.79
2022-10-04T15:30:17.993Z,60.08
2022-10-04T15:33:11.634Z,60.08
2022-10-04T15:35:57.090Z,60.43
2022-10-04T15:38:44.767Z,60.32
2022-10-04T15:41:46.167Z,60.73
2022-10-04T15:45:09.742Z,60.56
2022-10-04T15:48:13.788Z,60.94
2022-10-04T15:50:59.324Z,61.29
2022-10-04T15:53:57.292Z,61.08
2022-10-04T15:56:24.505Z,61.38
2022-10-04T15:58:57.117Z,61.41
2022-10-04T16:02:01.507Z,61.86
2022-10-04T16:04:37.653Z,61.85
2022-10-04T16:07:07.797Z,62.11
2022-10-04T16:10:12.200Z,62.36
2022-10-04T16:13:01.526Z,62.47
2022-10-04T16:15:42.478Z,62.71
2022-10-04T16:18:31.499Z,63.10
2022-10-04T16:21:12.860Z,63.17
2022-10-04T16:23:44.229Z,63.35
2022-10-04T16:26:19.619Z,63.55
2022-10-04T16:28:57.244Z,63.78
2022-10-04T16:31:56.096Z,63.99
2022-10-04T16:34:57.220Z,64.21
2022-10-04T16:37:24.132Z,64.39
2022-10-04T16:40:06.062Z,64.61
2022-10-04T16:42:42.180Z,64.89
2022-10-04T16:45:09.851Z,64.99
2022-10-04T16:47:53.069Z,65.31
2022-10-04T16:50:54.041Z,65.55
2022-10-04T16:53:48.922Z,65.77
2022-10-04T16:56:24.882Z,65.96
2022-10-04T16:59:00.552Z,66.10
2022-10-04T17:01:38.847Z,66.30
2022-10-04T17:04:24.409Z,66.35
2022-10-04T17:06:54.532Z,66.92
2022-10-04T17:09:43.293Z,67.02
2022-10-04T17:12:28.466Z,67.25
2022-10-04T17:14:57.980Z,67.35
2022-10-04T17:17:31.709Z,67.26
2022-10-04T17:20:36.383Z,67.63
2022-10-04T17:23:21.610Z,68.10
2022-10-04T17:25:57.584Z,68.20
2022-10-04T17:28:30.795Z,68.37
2022-10-04T17:31:14.541Z,68.50
2022-10-04T17:34:03.426Z,68.78
2022-10-04T17:36:39.471Z,68.75
2022-10-04T17:39:44.806Z,69.23
2022-10-04T17:42:24.209Z,69.00
2022-10-04T17:45:00.407Z,69.64
2022-10-04T17:47:49.526Z,69.74
2022-10-04T17:50:39.861Z,69.64
2022-10-04T17:53:33.813Z,70.14
2022-10-04T17:56:02.993Z,69.73
2022-10-04T17:58:51.346Z,70.40
2022-10-04T18:01:32.159Z,70.33
2022-10-04T18:04:21.084Z,70.28
2022-10-04T18:06:51.191Z,70.43
2022-10-04T18:09:23.975Z,70.87
2022-10-04T18:11:59.327Z,71.13
2022-10-04T18:14:42.341Z,71.22
2022-10-04T18:17:25.366Z,71.11
2022-10-04T18:20:19.867Z,71.78
2022-10-04T18:22:51.719Z,71.91
2022-10-04T18:25:24.201Z,71.52
2022-10-04T18:28:13.863Z,71.90
2022-10-04T18:30:53.464Z,71.94
2022-10-04T18:33:26.636Z,72.35
2022-10-04T18:36:35.017Z,71.85
2022-10-04T18:39:15.421Z,72.05
2022-10-04T18:41:57.027Z,72.47
2022-10-04T18:44:31.288Z,72.10
2022-10-04T18:47:02.488Z,72.87
2022-10-04T18:49:33.388Z,72.92
2022-10-04T18:52:21.249Z,73.11
2022-10-04T18:54:57.401Z,73.13
2022-10-04T18:57:30.697Z,73.07
2022-10-04T19:00:16.483Z,72.95
2022-10-04T19:03:17.315Z,73.14
2022-10-04T19:06:21.806Z,73.66
2022-10-04T19:09:07.413Z,73.22
2022-10-04T19:11:41.374Z,73.49
2022-10-04T19:14:45.681Z,73.72
2022-10-04T19:17:12.709Z,73.38
2022-10-04T19:19:51.775Z,73.76
2022-10-04T19:22:31.372Z,73.58
2022-10-04T19:25:22.065Z,74.17
2022-10-04T19:27:52.841Z,73.89
2022-10-04T19:30:22.542Z,74.04
2022-10-04T19:33:00.506Z,74.25
2022-10-04T19:35:49.282Z,74.48
2022-10-04T19:38:52.348Z,74.32
2022-10-04T19:41:38.574Z,74.50
2022-10-04T19:44:11.932Z,74.49
2022-10-04T19:47:00.724Z,74.59
2022-10-04T19:50:06.603Z,74.45
2022-10-04T19:53:01.591Z,74.79
2022-10-04T19:56:00.192Z,74.60
2022-10-04T19:58:37.561Z,74.82
2022-10-04T20:01:32.021Z,74.98
2022-10-04T20:04:18.003Z,74.78
2022-10-04T20:06:50.389Z,74.78
2022-10-04T20:09:48.036Z,75.29
2022-10-04T20:12:35.615Z,75.16
2022-10-04T20:15:46.727Z,75.66
2022-10-04T20:18:33.042Z,75.34
2022-10-04T20:21:00.364Z,75.63
2022-10-04T20:23:39.628Z,75.33
2022-10-04T20:26:10.045Z,75.96
2022-10-04T20:28:40.818Z,75.34
2022-10-04T20:31:33.143Z,76.17
2022-10-04T20:34:33.490Z,75.92
2022-10-04T20:37:00.846Z,75.79
2022-10-04T20:39:40.201Z,76.19
2022-10-04T20:42:27.069Z,76.11
2022-10-04T20:45:22.285Z,76.23
2022-10-04T20:47:54.799Z,76.02
2022-10-04T20:50:25.444Z,76.46
2022-10-04T20:52:54.526Z,76.63
2022-10-04T20:55:35.403Z,76.73
2022-10-04T20:58:04.939Z,76.83
2022-10-04T21:00:34.301Z,77.02
2022-10-04T21:03:17.765Z,76.99
2022-10-04T21:05:53.088Z,76.76
2022-10-04T21:08:24.650Z,77.10
2022-10-04T21:11:20.483Z,77.28
2022-10-04T21:14:01.032Z,77.06
2022-10-04T21:16:38.268Z,77.08
2022-10-04T21:19:30.374Z,76.91
2022-10-04T21:21:58.480Z,77.30
2022-10-04T21:24:39.112Z,77.38
2022-10-04T21:27:09.569Z,77.53
2022-10-04T21:29:37.470Z,77.58
2022-10-04T21:32:05.010Z,77.57
2022-10-04T21:34:52.388Z,77.59
2022-10-04T21:37:19.417Z,77.42
2022-10-04T21:39:46.337Z,77.76
2022-10-04T21:42:13.375Z,77.93
2022-10-04T21:44:40.298Z,77.79
2022-10-04T21:47:07.357Z,77.77
2022-10-04T21:49:34.580Z,78.14
2022-10-04T21:52:02.041Z,78.10
2022-10-04T21:54:29.115Z,77.79
2022-10-04T21:56:56.038Z,78.28
2022-10-04T21:59:23.300Z,78.10
2022-10-04T22:01:50.410Z,77.98
2022-10-04T22:04:17.991Z,77.98
2022-10-04T22:06:45.354Z,77.80
2022-10-04T22:09:12.553Z,78.43
2022-10-04T22:11:39.493Z,78.22
2022-10-04T22:14:07.584Z,78.08
2022-10-04T22:16:34.819Z,77.97
2022-10-04T22:19:01.821Z,78.06
2022-10-04T22:21:28.674Z,78.17
2022-10-04T22:23:56.416Z,78.16
2022-10-04T22:26:26.165Z,78.49
2022-10-04T22:28:56.530Z,78.42
2022-10-04T22:31:28.481Z,78.33
2022-10-04T22:33:56.107Z,78.37
2022-10-04T22:36:41.717Z,78.92
2022-10-04T22:39:08.718Z,78.61
2022-10-04T22:41:39.637Z,78.52
2022-10-04T22:44:15.893Z,78.57
2022-10-04T22:46:45.845Z,78.78
2022-10-04T22:49:17.128Z,78.86
2022-10-04T22:51:45.355Z,78.50
2022-10-04T22:54:14.682Z,78.63
2022-10-04T22:56:41.923Z,78.98
2022-10-04T22:59:13.363Z,78.89
2022-10-04T23:01:40.653Z,79.13
2022-10-04T23:04:33.679Z,78.53
2022-10-04T23:07:00.755Z,78.99
2022-10-04T23:09:27.685Z,78.74
2022-10-04T23:11:54.755Z,78.53
2022-10-04T23:14:21.671Z,78.98
2022-10-04T23:16:49.153Z,79.39
2022-10-04T23:19:23.059Z,79.36
2022-10-04T23:21:50.292Z,79.16
2022-10-04T23:24:19.573Z,79.36
2022-10-04T23:26:49.756Z,78.91
2022-10-04T23:29:19.535Z,79.52
2022-10-04T23:31:47.426Z,79.52
2022-10-04T23:34:20.714Z,79.62
2022-10-04T23:36:48.962Z,79.66
2022-10-04T23:39:27.524Z,79.08
2022-10-04T23:41:56.036Z,79.15
2022-10-04T23:44:24.653Z,79.18
2022-10-04T23:46:52.097Z,79.37
2022-10-04T23:49:22.598Z,79.66
2022-10-04T23:51:58.964Z,79.51
2022-10-04T23:54:26.525Z,79.55
2022-10-04T23:56:53.598Z,79.73
2022-10-04T23:59:24.028Z,79.30
